Latest Weather Observations for Mortlake

IDV60801

Issued at 6:35 pm EST Tuesday 2 September 2014 (issued every 30 minutes, with the page automatically refreshed every 10 minutes)

About weather observations | Map of weather stations | Latest weather observations for VIC | Other Formats
Station Details ID: 090176 Name: MORTLAKE RACECOURSE Lat: -38.07 Lon: 142.77 Height: 130.0 m
Data from the previous 72 hours. | See also: Recent months at Mortlake
Date/Time
EST
Temp
°C
App
Temp
°C
Dew
Point
Rel
Hum
%
Delta-T
°C
Wind Press
QNH
hPa
Press
MSL
hPa
Rain
since 9 am
mm
Dir
 
Spd
km/h
Gust
km/h
Spd
kts
Gust
kts
02/06:30pm 8.4 4.6 7.5 94 0.4 SSW 17 24 9 13 1024.0 1024.1 0.0
02/06:00pm 9.0 6.0 6.1 82 1.3 S 11 15 6 8 1023.5 1023.6 0.0
02/05:30pm 10.0 6.8 6.9 81 1.5 S 13 17 7 9 1023.2 1023.3 0.0
02/05:00pm 9.7 6.6 7.3 85 1.1 S 13 20 7 11 1022.9 1023.0 0.0
02/04:30pm 11.1 6.9 5.8 70 2.5 SSW 17 24 9 13 1022.6 1022.7 0.0
02/04:00pm 10.6 5.5 5.8 72 2.2 SSW 22 32 12 17 1022.4 1022.5 0.0
02/03:30pm 12.2 6.8 6.3 67 2.8 SSW 24 35 13 19 1022.1 1022.2 0.0
02/03:00pm 12.4 6.8 5.6 63 3.2 SSW 24 33 13 18 1021.7 1021.9 0.0
02/02:30pm 13.0 8.0 6.6 65 3.1 SW 22 30 12 16 1021.3 1021.5 0.0
02/02:00pm 11.8 6.7 6.1 68 2.7 S 22 32 12 17 1021.2 1021.4 0.0
02/01:30pm 12.3 7.1 7.4 72 2.4 S 24 37 13 20 1021.3 1021.5 0.0
02/01:00pm 12.7 7.2 7.4 70 2.6 SSW 26 35 14 19 1021.4 1021.6 0.0
02/12:30pm 12.6 7.6 7.9 73 2.3 S 24 33 13 18 1021.6 1021.8 0.0
02/12:00pm 12.2 6.8 6.5 68 2.7 S 24 33 13 18 1021.5 1021.7 0.0
02/11:30am 11.6 6.2 6.3 70 2.5 SSW 24 35 13 19 1021.7 1021.9 0.0
02/11:00am 11.1 4.9 6.0 71 2.4 SSW 28 39 15 21 1021.6 1021.8 0.0
02/10:30am 11.4 6.4 7.9 79 1.7 S 24 33 13 18 1021.3 1021.5 0.0
02/10:00am 10.2 5.8 7.6 84 1.2 S 20 32 11 17 1021.2 1021.4 0.0
02/09:30am 10.7 5.8 8.3 85 1.2 SW 24 32 13 17 1021.0 1021.2 0.0
02/09:00am 10.0 6.4 8.4 90 0.8 S 17 22 9 12 1020.9 1021.1 3.8
02/08:30am 9.1 5.5 8.5 96 0.3 SSW 17 24 9 13 1020.3 1020.5 3.8
02/08:00am 7.8 5.2 7.7 99 0.0 SW 11 17 6 9 1019.8 1020.0 3.8
02/07:30am 7.1 4.3 7.0 99 0.0 SW 11 13 6 7 1019.5 1019.6 3.8
02/07:00am 6.0 2.9 5.4 96 0.3 SW 11 17 6 9 1018.9 1019.0 3.8
02/06:30am 5.2 2.7 4.6 96 0.3 WSW 7 11 4 6 1018.4 1018.5 3.8
02/06:00am 5.5 2.7 5.2 98 0.1 WSW 9 13 5 7 1017.9 1018.0 3.8
02/05:30am 5.3 2.9 5.2 99 0.0 WSW 7 11 4 6 1017.5 1017.6 3.8
02/05:00am 5.7 3.6 5.6 99 0.0 WSW 6 7 3 4 1017.0 1017.1 3.8
02/04:30am 6.3 4.1 6.2 99 0.0 SW 7 9 4 5 1016.7 1016.8 3.8
02/04:00am 6.8 4.7 6.7 99 0.0 SW 7 9 4 5 1016.2 1016.3 3.8
02/03:30am 7.6 5.7 7.5 99 0.0 SW 7 11 4 6 1016.0 1016.1 3.4
02/03:00am 7.5 4.8 7.4 99 0.0 W 11 15 6 8 1015.9 1016.0 2.8
02/02:30am 7.1 5.3 7.0 99 0.0 W 6 7 3 4 1015.5 1015.6 2.2
02/02:00am 7.6 5.7 7.5 99 0.0 W 7 11 4 6 1015.5 1015.6 2.2
02/01:30am 7.8 5.6 7.7 99 0.0 SW 9 11 5 6 1015.4 1015.5 1.6
02/01:00am 7.5 5.2 7.4 99 0.0 WSW 9 13 5 7 1014.7 1014.8 1.6
02/12:30am 8.1 4.4 8.0 99 0.0 SW 17 20 9 11 1014.8 1014.9 1.4
02/12:00am 7.8 5.2 7.7 99 0.0 WSW 11 15 6 8 1014.7 1014.8 1.4
 
Date/Time
EST
Temp
°C
App
Temp
°C
Dew
Point
Rel
Hum
%
Delta-T
°C
Wind Press
QNH
hPa
Press
MSL
hPa
Rain
since 9 am
mm
Dir
 
Spd
km/h
Gust
km/h
Spd
kts
Gust
kts
01/11:30pm 7.0 4.6 6.9 99 0.0 W 9 13 5 7 1014.4 1014.5 1.2
01/11:00pm 7.4 4.7 7.3 99 0.0 W 11 17 6 9 1014.2 1014.3 1.2
01/10:30pm 6.3 4.1 6.2 99 0.0 WNW 7 9 4 5 1014.0 1014.1 1.2
01/10:00pm 7.5 5.2 7.4 99 0.0 SW 9 13 5 7 1013.7 1013.9 1.2
01/09:30pm 6.4 4.2 6.3 99 0.0 W 7 11 4 6 1013.3 1013.5 1.2
01/09:00pm 5.8 3.7 5.7 99 0.0 WNW 6 7 3 4 1013.2 1013.4 1.2
01/08:30pm 8.2 6.4 8.1 99 0.0 W 7 11 4 6 1013.0 1013.1 1.2
01/08:00pm 8.4 6.6 8.1 98 0.1 WSW 7 9 4 5 1012.8 1012.9 1.2
01/07:30pm 9.3 7.3 8.8 97 0.2 WSW 9 13 5 7 1012.4 1012.5 1.2
01/07:00pm 9.6 7.6 8.7 94 0.4 WSW 9 17 5 9 1012.1 1012.2 1.2
01/06:30pm 9.9 8.4 9.1 95 0.4 WSW 7 9 4 5 1011.6 1011.7 1.2
01/06:00pm 10.6 9.4 9.5 93 0.6 WSW 6 9 3 5 1011.2 1011.3 1.2
01/05:30pm 11.2 9.1 9.8 91 0.7 SW 11 17 6 9 1010.9 1011.0 1.2
01/05:00pm 11.3 8.8 9.6 89 0.9 SW 13 17 7 9 1010.5 1010.6 1.2
01/04:30pm 11.5 10.2 10.1 91 0.7 WSW 7 11 4 6 1010.2 1010.3 1.2
01/04:00pm 11.6 9.0 9.5 87 1.1 WSW 13 19 7 10 1010.0 1010.1 1.2
01/03:30pm 11.8 8.9 9.5 86 1.2 SW 15 20 8 11 1009.6 1009.7 1.2
01/03:00pm 11.8 9.6 9.4 85 1.2 SW 11 17 6 9 1009.2 1009.3 1.2
01/02:30pm 12.2 8.4 9.2 82 1.5 SW 19 26 10 14 1009.4 1009.5 1.2
01/02:00pm 12.5 9.5 10.6 88 1.0 SSW 17 22 9 12 1008.9 1009.0 1.2
01/01:30pm 12.5 9.2 9.5 82 1.5 SSW 17 24 9 13 1009.0 1009.1 1.2
01/01:00pm 11.7 8.9 10.1 90 0.8 SW 15 20 8 11 1009.3 1009.4 1.2
01/12:30pm 11.8 8.0 9.9 88 1.0 SW 20 32 11 17 1009.2 1009.3 1.2
01/12:00pm 11.1 8.0 10.2 94 0.5 SW 17 24 9 13 1009.4 1009.5 1.2
01/11:30am 12.0 8.9 10.4 90 0.8 WSW 17 22 9 12 1009.4 1009.5 1.2
01/11:00am 12.0 9.5 11.1 94 0.5 WSW 15 22 8 12 1009.4 1009.5 1.2
01/10:30am 11.9 9.9 11.6 98 0.2 WSW 13 24 7 13 1009.1 1009.2 1.2
01/10:00am 11.4 9.7 11.2 99 0.1 WSW 11 19 6 10 1009.2 1009.3 1.2
01/09:30am 10.8 8.2 10.6 99 0.1 W 15 20 8 11 1009.1 1009.3 0.8
01/09:00am 11.3 9.2 11.1 99 0.1 NNW 13 19 7 10 1008.8 1009.0 3.6
01/08:30am 11.0 9.2 11.0 100 0.0 NNW 11 15 6 8 1008.5 1008.7 3.6
01/08:00am 10.8 9.0 10.8 100 0.0 NNW 11 13 6 7 1008.1 1008.2 3.6
01/07:30am 10.7 8.8 10.5 99 0.1 NNW 11 15 6 8 1008.2 1008.3 3.2
01/07:00am 10.8 9.3 10.6 99 0.1 NNW 9 11 5 6 1008.1 1008.2 3.0
01/06:30am 11.0 8.4 10.8 99 0.1 NW 15 19 8 10 1008.0 1008.1 3.0
01/06:00am 11.1 7.8 10.9 99 0.1 NW 19 26 10 14 1007.6 1007.7 2.0
01/05:30am 11.1 8.6 10.9 99 0.1 NW 15 20 8 11 1007.8 1007.9 1.2
01/05:00am 11.5 8.1 10.7 95 0.4 NW 19 26 10 14 1007.4 1007.5 0.6
01/04:30am 11.5 8.8 10.4 93 0.6 NW 15 19 8 10 1007.6 1007.7 0.6
01/04:00am 12.4 9.2 9.8 84 1.3 WNW 17 24 9 13 1007.4 1007.5 0.6
01/03:30am 13.7 9.5 8.3 70 2.7 WNW 20 28 11 15 1007.7 1007.8 0.6
01/03:00am 14.2 10.6 6.6 60 3.7 WNW 15 20 8 11 1007.9 1008.0 0.6
01/02:30am 12.7 10.0 7.2 69 2.7 WNW 11 13 6 7 1007.6 1007.7 0.6
01/02:00am 12.7 10.7 7.0 68 2.8 NW 7 13 4 7 1007.4 1007.5 0.6
01/01:30am 13.5 12.0 6.6 63 3.3 W 4 11 2 6 1007.3 1007.4 0.6
01/01:00am 13.4 11.3 6.5 63 3.3 NW 7 9 4 5 1007.4 1007.5 0.6
01/12:30am 14.2 9.6 6.3 59 3.8 N 20 30 11 16 1007.5 1007.6 0.6
01/12:00am 14.3 9.3 6.6 60 3.8 N 22 30 12 16 1007.4 1007.5 0.6
 
Date/Time
EST
Temp
°C
App
Temp
°C
Dew
Point
Rel
Hum
%
Delta-T
°C
Wind Press
QNH
hPa
Press
MSL
hPa
Rain
since 9 am
mm
Dir
 
Spd
km/h
Gust
km/h
Spd
kts
Gust
kts
31/11:30pm 14.9 10.0 7.0 59 3.9 N 22 32 12 17 1007.7 1007.8 0.6
31/11:00pm 15.1 9.8 6.9 58 4.0 N 24 33 13 18 1008.3 1008.4 0.6
31/10:30pm 13.9 10.4 7.4 65 3.2 N 15 22 8 12 1008.9 1009.1 0.6
31/10:00pm 14.1 11.3 8.5 69 2.8 N 13 19 7 10 1009.2 1009.4 0.6
31/09:30pm 11.8 10.2 8.8 82 1.5 N 7 7 4 4 1009.9 1010.1 0.6
31/09:00pm 13.0 11.4 8.7 75 2.2 N 7 11 4 6 1010.0 1010.2 0.6
31/08:30pm 13.9 11.0 9.7 76 2.2 N 15 19 8 10 1009.5 1009.7 0.6
31/08:00pm 15.1 11.9 9.9 71 2.7 NNE 17 20 9 11 1009.7 1009.9 0.6
31/07:30pm 15.2 12.2 10.8 75 2.3 NNE 17 20 9 11 1010.0 1010.2 0.6
31/07:00pm 15.1 13.1 11.5 79 1.9 NNE 13 17 7 9 1010.6 1010.8 0.6
31/06:30pm 15.4 13.5 11.8 79 2.0 NNE 13 17 7 9 1010.6 1010.8 0.6
31/06:00pm 15.4 14.1 11.4 77 2.2 NW 9 9 5 5 1010.9 1011.1 0.6
31/05:30pm 16.1 14.3 12.1 77 2.2 NNE 13 15 7 8 1010.8 1011.0 0.6
31/05:00pm 17.3 15.4 11.8 70 3.0 N 13 17 7 9 1010.6 1010.8 0.6
31/04:30pm 17.9 14.8 11.5 66 3.5 N 19 24 10 13 1010.9 1011.1 0.6
31/04:00pm 17.9 14.6 11.7 67 3.4 N 20 26 11 14 1011.0 1011.2 0.6
31/03:30pm 18.0 15.0 11.8 67 3.4 N 19 26 10 14 1011.3 1011.5 0.6
31/03:00pm 18.6 15.0 11.9 65 3.7 N 22 32 12 17 1011.6 1011.8 0.6
31/02:30pm 19.6 16.0 11.9 61 4.3 N 22 32 12 17 1012.0 1012.2 0.6
31/02:00pm 19.1 15.5 11.7 62 4.1 N 22 28 12 15 1012.2 1012.4 0.6
31/01:30pm 18.7 15.6 12.2 66 3.6 N 20 28 11 15 1012.8 1013.0 0.6
31/01:00pm 18.2 14.1 11.3 64 3.8 N 24 33 13 18 1013.3 1013.5 0.6
31/12:30pm 18.3 14.3 11.8 66 3.6 N 24 32 13 17 1013.9 1014.0 0.6
31/12:00pm 17.5 12.9 10.9 65 3.6 N 26 37 14 20 1014.4 1014.5 0.6
31/11:30am 16.6 12.3 10.9 69 3.1 N 24 32 13 17 1014.9 1015.1 0.6
31/11:00am 16.3 12.1 11.0 71 2.9 N 24 32 13 17 1015.2 1015.4 0.6
31/10:30am 15.4 10.5 10.0 70 2.8 N 26 39 14 21 1015.6 1015.8 0.6
31/10:00am 15.7 11.0 10.5 71 2.8 N 26 35 14 19 1016.0 1016.2 0.6
31/09:30am 14.7 11.0 10.1 74 2.4 N 20 26 11 14 1016.5 1016.7 0.0
31/09:00am 13.9 9.6 9.5 75 2.3 N 22 30 12 16 1016.6 1016.8 0.0
31/08:30am 13.0 9.1 9.3 78 1.9 N 20 30 11 16 1016.8 1017.0 0.0
31/08:00am 11.6 7.2 9.0 84 1.3 N 22 30 12 16 1016.6 1016.8 0.0
31/07:30am 10.3 6.2 8.6 89 0.8 N 20 26 11 14 1016.7 1016.9 0.0
31/07:00am 9.3 5.3 8.2 93 0.5 N 19 22 10 12 1016.7 1016.9 0.0
31/06:30am 8.3 4.2 7.7 96 0.3 N 19 20 10 11 1016.5 1016.7 0.0
31/06:00am 8.7 5.0 8.1 96 0.3 N 17 20 9 11 1016.7 1016.9 0.0
31/05:30am 8.2 4.8 7.8 97 0.2 N 15 19 8 10 1016.9 1017.1 0.0
31/05:00am 8.4 5.0 7.6 95 0.4 N 15 19 8 10 1016.9 1017.1 0.0
31/04:30am 8.8 5.4 7.7 93 0.5 N 15 20 8 11 1016.9 1017.1 0.0
31/04:00am 9.3 6.0 8.2 93 0.5 N 15 19 8 10 1017.0 1017.2 0.0
31/03:30am 9.1 5.8 8.0 93 0.5 N 15 17 8 9 1017.2 1017.4 0.0
31/03:00am 9.0 5.7 8.1 94 0.4 N 15 19 8 10 1017.5 1017.7 0.0
31/02:30am 9.5 6.3 8.4 93 0.5 N 15 19 8 10 1017.7 1017.9 0.0
31/02:00am 8.9 5.6 8.1 95 0.4 N 15 19 8 10 1018.0 1018.2 0.0
31/01:30am 9.2 6.3 8.3 94 0.4 N 13 17 7 9 1018.4 1018.6 0.0
31/01:00am 8.5 5.7 8.4 99 0.0 N 13 17 7 9 1018.6 1018.8 0.0
31/12:30am 8.8 6.0 8.4 97 0.2 N 13 15 7 8 1018.9 1019.1 0.0
31/12:00am 8.9 6.1 8.5 97 0.2 N 13 17 7 9 1019.0 1019.2 0.0
 
Date/Time
EST
Temp
°C
App
Temp
°C
Dew
Point
Rel
Hum
%
Delta-T
°C
Wind Press
QNH
hPa
Press
MSL
hPa
Rain
since 9 am
mm
Dir
 
Spd
km/h
Gust
km/h
Spd
kts
Gust
kts
30/11:30pm 9.5 6.4 9.0 97 0.2 N 15 17 8 9 1019.2 1019.4 0.0
30/11:00pm 9.4 6.4 9.1 98 0.1 N 15 17 8 9 1019.5 1019.7 0.0
30/10:30pm 9.2 6.9 8.9 98 0.1 N 11 13 6 7 1020.0 1020.2 0.0
30/10:00pm 10.3 8.3 10.0 98 0.2 N 11 15 6 8 1020.2 1020.4 0.0
30/09:30pm 10.0 7.6 9.9 99 0.1 NNE 13 15 7 8 1020.3 1020.5 0.0
30/09:00pm 10.5 8.5 10.3 99 0.1 NNE 11 13 6 7 1020.6 1020.8 0.0
30/08:30pm 10.7 9.4 9.8 94 0.5 N 7 11 4 6 1020.6 1020.8 0.0
30/08:00pm 11.1 10.0 10.8 98 0.2 N 7 9 4 5 1020.7 1020.9 0.0
30/07:30pm 11.4 10.3 10.8 96 0.3 N 7 7 4 4 1020.9 1021.1 0.0
30/07:00pm 12.2 11.4 10.9 92 0.7 NNW 6 7 3 4 1020.7 1020.9 0.0

Other Formats:

Comma delimited format used in spreadsheet applications
http://www.bom.gov.au/fwo/IDV60801/IDV60801.94840.axf

JavaScript Object Notation format (JSON) in row-major order
http://www.bom.gov.au/fwo/IDV60801/IDV60801.94840.json